sensor_id;sensor_type;location;lat;lon;timestamp;P1;durP1;ratioP1;P2;durP2;ratioP2
8397;SDS011;4236;54.504;9.588;2023-10-09T00:02:46;27.90;;;26.80;;
8397;SDS011;4236;54.504;9.588;2023-10-09T00:05:16;25.47;;;24.50;;
8397;SDS011;4236;54.504;9.588;2023-10-09T00:07:49;25.63;;;24.73;;
8397;SDS011;4236;54.504;9.588;2023-10-09T00:10:22;24.73;;;23.93;;
8397;SDS011;4236;54.504;9.588;2023-10-09T00:12:51;25.80;;;24.90;;
8397;SDS011;4236;54.504;9.588;2023-10-09T00:15:18;28.37;;;26.97;;
8397;SDS011;4236;54.504;9.588;2023-10-09T00:17:47;28.40;;;27.00;;
8397;SDS011;4236;54.504;9.588;2023-10-09T00:20:17;25.00;;;24.10;;
8397;SDS011;4236;54.504;9.588;2023-10-09T00:22:47;26.43;;;25.20;;
8397;SDS011;4236;54.504;9.588;2023-10-09T00:25:14;25.13;;;24.23;;
8397;SDS011;4236;54.504;9.588;2023-10-09T00:27:48;23.80;;;22.93;;
8397;SDS011;4236;54.504;9.588;2023-10-09T00:30:16;23.27;;;22.43;;
8397;SDS011;4236;54.504;9.588;2023-10-09T00:32:47;22.33;;;21.53;;
8397;SDS011;4236;54.504;9.588;2023-10-09T00:35:27;22.80;;;22.00;;
8397;SDS011;4236;54.504;9.588;2023-10-09T00:38:13;22.23;;;21.47;;
8397;SDS011;4236;54.504;9.588;2023-10-09T00:40:50;21.37;;;20.57;;
8397;SDS011;4236;54.504;9.588;2023-10-09T00:43:36;21.50;;;20.77;;
8397;SDS011;4236;54.504;9.588;2023-10-09T00:46:05;22.30;;;21.50;;
8397;SDS011;4236;54.504;9.588;2023-10-09T00:48:38;21.00;;;20.30;;
8397;SDS011;4236;54.504;9.588;2023-10-09T00:51:08;20.73;;;20.10;;
8397;SDS011;4236;54.504;9.588;2023-10-09T00:53:44;23.43;;;22.57;;
8397;SDS011;4236;54.504;9.588;2023-10-09T00:56:17;21.90;;;21.20;;
8397;SDS011;4236;54.504;9.588;2023-10-09T00:58:55;22.40;;;21.70;;
8397;SDS011;4236;54.504;9.588;2023-10-09T01:01:26;23.00;;;22.23;;
8397;SDS011;4236;54.504;9.588;2023-10-09T01:04:01;21.73;;;20.90;;
8397;SDS011;4236;54.504;9.588;2023-10-09T01:06:34;20.37;;;19.77;;
8397;SDS011;4236;54.504;9.588;2023-10-09T01:09:09;20.20;;;19.60;;
8397;SDS011;4236;54.504;9.588;2023-10-09T01:11:40;22.70;;;21.90;;
8397;SDS011;4236;54.504;9.588;2023-10-09T01:14:15;23.70;;;22.70;;
8397;SDS011;4236;54.504;9.588;2023-10-09T01:16:43;22.30;;;21.50;;
8397;SDS011;4236;54.504;9.588;2023-10-09T01:19:13;22.30;;;21.50;;
8397;SDS011;4236;54.504;9.588;2023-10-09T01:21:48;21.80;;;21.10;;
8397;SDS011;4236;54.504;9.588;2023-10-09T01:24:17;22.00;;;21.20;;
8397;SDS011;4236;54.504;9.588;2023-10-09T01:26:47;22.37;;;21.60;;
8397;SDS011;4236;54.504;9.588;2023-10-09T01:29:16;22.13;;;21.23;;
8397;SDS011;4236;54.504;9.588;2023-10-09T01:31:46;21.33;;;20.63;;
8397;SDS011;4236;54.504;9.588;2023-10-09T01:34:22;22.80;;;21.90;;
8397;SDS011;4236;54.504;9.588;2023-10-09T01:36:52;21.80;;;21.03;;
8397;SDS011;4236;54.504;9.588;2023-10-09T01:39:23;22.83;;;22.03;;
8397;SDS011;4236;54.504;9.588;2023-10-09T01:41:54;22.37;;;21.67;;
8397;SDS011;4236;54.504;9.588;2023-10-09T01:44:26;21.73;;;20.93;;
8397;SDS011;4236;54.504;9.588;2023-10-09T01:46:54;22.20;;;21.30;;
8397;SDS011;4236;54.504;9.588;2023-10-09T01:49:24;23.13;;;22.23;;
8397;SDS011;4236;54.504;9.588;2023-10-09T01:51:58;22.00;;;21.30;;
8397;SDS011;4236;54.504;9.588;2023-10-09T01:54:34;21.77;;;20.93;;
8397;SDS011;4236;54.504;9.588;2023-10-09T01:57:04;22.40;;;21.60;;
8397;SDS011;4236;54.504;9.588;2023-10-09T01:59:38;22.00;;;21.30;;
8397;SDS011;4236;54.504;9.588;2023-10-09T02:02:10;23.23;;;22.20;;
8397;SDS011;4236;54.504;9.588;2023-10-09T02:04:58;22.80;;;21.90;;
8397;SDS011;4236;54.504;9.588;2023-10-09T02:07:36;23.70;;;22.70;;
8397;SDS011;4236;54.504;9.588;2023-10-09T02:10:19;23.93;;;22.93;;
8397;SDS011;4236;54.504;9.588;2023-10-09T02:12:52;23.10;;;22.30;;
8397;SDS011;4236;54.504;9.588;2023-10-09T02:15:24;23.37;;;22.50;;
8397;SDS011;4236;54.504;9.588;2023-10-09T02:18:19;25.00;;;23.93;;
8397;SDS011;4236;54.504;9.588;2023-10-09T02:21:04;24.63;;;23.83;;
8397;SDS011;4236;54.504;9.588;2023-10-09T02:23:40;24.53;;;23.73;;
8397;SDS011;4236;54.504;9.588;2023-10-09T02:26:12;25.43;;;24.43;;
8397;SDS011;4236;54.504;9.588;2023-10-09T02:28:49;25.67;;;24.87;;
8397;SDS011;4236;54.504;9.588;2023-10-09T02:31:26;26.23;;;25.33;;
8397;SDS011;4236;54.504;9.588;2023-10-09T02:34:04;27.00;;;26.10;;
8397;SDS011;4236;54.504;9.588;2023-10-09T02:36:38;26.63;;;25.67;;
8397;SDS011;4236;54.504;9.588;2023-10-09T02:39:07;27.07;;;26.03;;
8397;SDS011;4236;54.504;9.588;2023-10-09T02:41:49;27.13;;;26.13;;
8397;SDS011;4236;54.504;9.588;2023-10-09T02:44:18;26.37;;;25.47;;
8397;SDS011;4236;54.504;9.588;2023-10-09T02:46:51;27.30;;;26.30;;
8397;SDS011;4236;54.504;9.588;2023-10-09T02:49:25;26.60;;;25.60;;
8397;SDS011;4236;54.504;9.588;2023-10-09T02:51:54;27.97;;;26.77;;
8397;SDS011;4236;54.504;9.588;2023-10-09T02:54:22;26.80;;;25.80;;
8397;SDS011;4236;54.504;9.588;2023-10-09T02:57:02;28.03;;;27.00;;
8397;SDS011;4236;54.504;9.588;2023-10-09T02:59:34;28.50;;;27.23;;
8397;SDS011;4236;54.504;9.588;2023-10-09T03:02:05;27.77;;;26.67;;
8397;SDS011;4236;54.504;9.588;2023-10-09T03:04:34;29.43;;;28.13;;
8397;SDS011;4236;54.504;9.588;2023-10-09T03:07:04;28.30;;;27.03;;
8397;SDS011;4236;54.504;9.588;2023-10-09T03:09:33;28.47;;;27.27;;
8397;SDS011;4236;54.504;9.588;2023-10-09T03:12:02;29.10;;;27.90;;
8397;SDS011;4236;54.504;9.588;2023-10-09T03:14:33;27.57;;;26.67;;
8397;SDS011;4236;54.504;9.588;2023-10-09T03:17:04;27.63;;;26.53;;
8397;SDS011;4236;54.504;9.588;2023-10-09T03:19:34;27.63;;;26.60;;
8397;SDS011;4236;54.504;9.588;2023-10-09T03:22:04;28.60;;;27.50;;
8397;SDS011;4236;54.504;9.588;2023-10-09T03:24:35;29.03;;;27.87;;
8397;SDS011;4236;54.504;9.588;2023-10-09T03:27:03;28.80;;;27.67;;
8397;SDS011;4236;54.504;9.588;2023-10-09T03:29:31;29.93;;;28.73;;
8397;SDS011;4236;54.504;9.588;2023-10-09T03:31:59;29.13;;;28.03;;
8397;SDS011;4236;54.504;9.588;2023-10-09T03:34:27;28.90;;;27.80;;
8397;SDS011;4236;54.504;9.588;2023-10-09T03:36:58;30.10;;;28.90;;
8397;SDS011;4236;54.504;9.588;2023-10-09T03:39:32;30.00;;;28.70;;
8397;SDS011;4236;54.504;9.588;2023-10-09T03:42:07;29.53;;;28.23;;
8397;SDS011;4236;54.504;9.588;2023-10-09T03:44:45;31.00;;;29.70;;
8397;SDS011;4236;54.504;9.588;2023-10-09T03:47:18;30.10;;;28.90;;
8397;SDS011;4236;54.504;9.588;2023-10-09T03:49:48;31.10;;;29.80;;
8397;SDS011;4236;54.504;9.588;2023-10-09T03:52:19;31.40;;;30.07;;
8397;SDS011;4236;54.504;9.588;2023-10-09T03:54:46;31.23;;;29.93;;
8397;SDS011;4236;54.504;9.588;2023-10-09T03:57:15;33.23;;;31.73;;
8397;SDS011;4236;54.504;9.588;2023-10-09T03:59:45;32.27;;;30.87;;
8397;SDS011;4236;54.504;9.588;2023-10-09T04:02:13;32.90;;;31.50;;
8397;SDS011;4236;54.504;9.588;2023-10-09T04:04:42;33.40;;;31.87;;
8397;SDS011;4236;54.504;9.588;2023-10-09T04:07:14;34.03;;;32.63;;
8397;SDS011;4236;54.504;9.588;2023-10-09T04:09:44;32.63;;;31.33;;
8397;SDS011;4236;54.504;9.588;2023-10-09T04:12:20;33.80;;;32.40;;
8397;SDS011;4236;54.504;9.588;2023-10-09T04:14:51;34.97;;;33.50;;
8397;SDS011;4236;54.504;9.588;2023-10-09T04:17:24;34.93;;;33.43;;
8397;SDS011;4236;54.504;9.588;2023-10-09T04:20:02;34.97;;;33.27;;
8397;SDS011;4236;54.504;9.588;2023-10-09T04:22:48;34.70;;;33.30;;
8397;SDS011;4236;54.504;9.588;2023-10-09T04:25:28;36.90;;;35.30;;
8397;SDS011;4236;54.504;9.588;2023-10-09T04:27:56;37.67;;;35.97;;
8397;SDS011;4236;54.504;9.588;2023-10-09T04:30:35;36.93;;;35.33;;
8397;SDS011;4236;54.504;9.588;2023-10-09T04:33:07;37.70;;;36.10;;
8397;SDS011;4236;54.504;9.588;2023-10-09T04:35:54;38.17;;;36.27;;
8397;SDS011;4236;54.504;9.588;2023-10-09T04:38:36;38.60;;;37.00;;
8397;SDS011;4236;54.504;9.588;2023-10-09T04:41:06;38.93;;;37.23;;
8397;SDS011;4236;54.504;9.588;2023-10-09T04:43:35;37.83;;;36.33;;
8397;SDS011;4236;54.504;9.588;2023-10-09T04:46:02;40.30;;;38.30;;
8397;SDS011;4236;54.504;9.588;2023-10-09T04:48:39;38.13;;;36.53;;
8397;SDS011;4236;54.504;9.588;2023-10-09T04:51:06;39.87;;;38.00;;
8397;SDS011;4236;54.504;9.588;2023-10-09T04:54:01;38.30;;;36.60;;
8397;SDS011;4236;54.504;9.588;2023-10-09T04:56:40;38.77;;;37.00;;
8397;SDS011;4236;54.504;9.588;2023-10-09T04:59:18;38.73;;;36.93;;
8397;SDS011;4236;54.504;9.588;2023-10-09T05:01:51;39.30;;;37.50;;
8397;SDS011;4236;54.504;9.588;2023-10-09T05:04:25;39.07;;;37.27;;
8397;SDS011;4236;54.504;9.588;2023-10-09T05:07:05;38.57;;;36.60;;
8397;SDS011;4236;54.504;9.588;2023-10-09T05:09:47;40.93;;;39.13;;
8397;SDS011;4236;54.504;9.588;2023-10-09T05:12:42;41.00;;;39.00;;
8397;SDS011;4236;54.504;9.588;2023-10-09T05:15:13;39.03;;;37.13;;
8397;SDS011;4236;54.504;9.588;2023-10-09T05:17:42;40.93;;;39.03;;
8397;SDS011;4236;54.504;9.588;2023-10-09T05:20:18;41.57;;;39.53;;
8397;SDS011;4236;54.504;9.588;2023-10-09T05:23:03;40.70;;;38.53;;
8397;SDS011;4236;54.504;9.588;2023-10-09T05:25:49;41.63;;;39.43;;
8397;SDS011;4236;54.504;9.588;2023-10-09T05:28:23;39.90;;;38.00;;
8397;SDS011;4236;54.504;9.588;2023-10-09T05:30:58;42.27;;;40.03;;
8397;SDS011;4236;54.504;9.588;2023-10-09T05:33:35;40.63;;;38.73;;
8397;SDS011;4236;54.504;9.588;2023-10-09T05:36:04;38.47;;;36.77;;
8397;SDS011;4236;54.504;9.588;2023-10-09T05:38:43;40.20;;;37.97;;
8397;SDS011;4236;54.504;9.588;2023-10-09T05:41:25;39.47;;;37.47;;
8397;SDS011;4236;54.504;9.588;2023-10-09T05:44:14;38.70;;;37.03;;
8397;SDS011;4236;54.504;9.588;2023-10-09T05:47:00;40.10;;;38.10;;
8397;SDS011;4236;54.504;9.588;2023-10-09T05:49:45;38.37;;;36.73;;
8397;SDS011;4236;54.504;9.588;2023-10-09T05:52:21;39.40;;;37.70;;
8397;SDS011;4236;54.504;9.588;2023-10-09T05:54:59;37.60;;;35.90;;
8397;SDS011;4236;54.504;9.588;2023-10-09T05:58:07;37.47;;;35.87;;
8397;SDS011;4236;54.504;9.588;2023-10-09T06:00:53;37.40;;;35.70;;
8397;SDS011;4236;54.504;9.588;2023-10-09T06:03:38;36.90;;;35.20;;
8397;SDS011;4236;54.504;9.588;2023-10-09T06:06:16;35.90;;;34.30;;
8397;SDS011;4236;54.504;9.588;2023-10-09T06:09:00;37.20;;;35.50;;
8397;SDS011;4236;54.504;9.588;2023-10-09T06:11:55;36.00;;;34.40;;
8397;SDS011;4236;54.504;9.588;2023-10-09T06:14:23;37.20;;;35.53;;
8397;SDS011;4236;54.504;9.588;2023-10-09T06:17:09;36.33;;;34.63;;
8397;SDS011;4236;54.504;9.588;2023-10-09T06:19:49;36.80;;;35.20;;
8397;SDS011;4236;54.504;9.588;2023-10-09T06:22:24;36.07;;;34.17;;
8397;SDS011;4236;54.504;9.588;2023-10-09T06:25:09;36.10;;;34.50;;
8397;SDS011;4236;54.504;9.588;2023-10-09T06:27:38;35.90;;;33.87;;
8397;SDS011;4236;54.504;9.588;2023-10-09T06:30:24;36.40;;;34.70;;
8397;SDS011;4236;54.504;9.588;2023-10-09T06:32:54;35.20;;;33.60;;
8397;SDS011;4236;54.504;9.588;2023-10-09T06:35:46;35.90;;;34.27;;
8397;SDS011;4236;54.504;9.588;2023-10-09T06:38:21;34.90;;;33.30;;
8397;SDS011;4236;54.504;9.588;2023-10-09T06:41:00;35.60;;;34.10;;
8397;SDS011;4236;54.504;9.588;2023-10-09T06:44:01;34.80;;;33.30;;
8397;SDS011;4236;54.504;9.588;2023-10-09T06:46:33;36.07;;;34.43;;
8397;SDS011;4236;54.504;9.588;2023-10-09T06:49:20;35.13;;;33.50;;
8397;SDS011;4236;54.504;9.588;2023-10-09T06:51:55;35.63;;;34.13;;
8397;SDS011;4236;54.504;9.588;2023-10-09T06:54:40;35.73;;;34.10;;
8397;SDS011;4236;54.504;9.588;2023-10-09T06:57:16;34.03;;;32.53;;
8397;SDS011;4236;54.504;9.588;2023-10-09T07:00:07;34.70;;;32.77;;
8397;SDS011;4236;54.504;9.588;2023-10-09T07:02:53;34.53;;;32.93;;
8397;SDS011;4236;54.504;9.588;2023-10-09T07:05:24;33.83;;;32.03;;
8397;SDS011;4236;54.504;9.588;2023-10-09T07:07:58;34.00;;;32.40;;
8397;SDS011;4236;54.504;9.588;2023-10-09T07:10:45;34.73;;;33.13;;
8397;SDS011;4236;54.504;9.588;2023-10-09T07:13:29;34.13;;;32.30;;
8397;SDS011;4236;54.504;9.588;2023-10-09T07:15:56;33.67;;;32.17;;
8397;SDS011;4236;54.504;9.588;2023-10-09T07:18:41;34.73;;;33.23;;
8397;SDS011;4236;54.504;9.588;2023-10-09T07:21:17;34.67;;;33.27;;
8397;SDS011;4236;54.504;9.588;2023-10-09T07:23:54;35.27;;;33.70;;
8397;SDS011;4236;54.504;9.588;2023-10-09T07:26:29;35.10;;;33.30;;
8397;SDS011;4236;54.504;9.588;2023-10-09T07:29:04;34.73;;;33.33;;
8397;SDS011;4236;54.504;9.588;2023-10-09T07:31:51;36.40;;;34.40;;
8397;SDS011;4236;54.504;9.588;2023-10-09T07:34:24;35.93;;;34.40;;
8397;SDS011;4236;54.504;9.588;2023-10-09T07:36:58;33.73;;;32.43;;
8397;SDS011;4236;54.504;9.588;2023-10-09T07:39:30;34.60;;;32.90;;
8397;SDS011;4236;54.504;9.588;2023-10-09T07:42:04;33.60;;;32.23;;
8397;SDS011;4236;54.504;9.588;2023-10-09T07:44:46;35.53;;;33.63;;
8397;SDS011;4236;54.504;9.588;2023-10-09T07:47:19;33.07;;;31.67;;
8397;SDS011;4236;54.504;9.588;2023-10-09T07:49:59;34.60;;;32.90;;
8397;SDS011;4236;54.504;9.588;2023-10-09T07:52:30;36.13;;;34.37;;
8397;SDS011;4236;54.504;9.588;2023-10-09T07:54:57;35.13;;;33.40;;
8397;SDS011;4236;54.504;9.588;2023-10-09T07:57:40;35.63;;;34.07;;
8397;SDS011;4236;54.504;9.588;2023-10-09T08:00:18;35.87;;;34.37;;
8397;SDS011;4236;54.504;9.588;2023-10-09T08:03:00;35.77;;;33.93;;
8397;SDS011;4236;54.504;9.588;2023-10-09T08:05:29;34.90;;;33.57;;
8397;SDS011;4236;54.504;9.588;2023-10-09T08:08:02;35.10;;;32.83;;
8397;SDS011;4236;54.504;9.588;2023-10-09T08:11:07;35.00;;;33.40;;
8397;SDS011;4236;54.504;9.588;2023-10-09T08:14:00;37.80;;;36.00;;
8397;SDS011;4236;54.504;9.588;2023-10-09T08:16:29;35.90;;;34.20;;
8397;SDS011;4236;54.504;9.588;2023-10-09T08:19:05;36.60;;;35.10;;
8397;SDS011;4236;54.504;9.588;2023-10-09T08:21:58;37.63;;;35.93;;
8397;SDS011;4236;54.504;9.588;2023-10-09T08:24:45;37.93;;;36.00;;
8397;SDS011;4236;54.504;9.588;2023-10-09T08:27:22;38.30;;;36.33;;
8397;SDS011;4236;54.504;9.588;2023-10-09T08:30:13;39.23;;;37.43;;
8397;SDS011;4236;54.504;9.588;2023-10-09T08:32:55;37.00;;;35.27;;
8397;SDS011;4236;54.504;9.588;2023-10-09T08:35:33;38.70;;;37.00;;
8397;SDS011;4236;54.504;9.588;2023-10-09T08:38:13;37.07;;;35.23;;
8397;SDS011;4236;54.504;9.588;2023-10-09T08:40:44;37.37;;;35.67;;
8397;SDS011;4236;54.504;9.588;2023-10-09T08:43:13;37.73;;;35.80;;
8397;SDS011;4236;54.504;9.588;2023-10-09T08:45:44;37.90;;;36.30;;
8397;SDS011;4236;54.504;9.588;2023-10-09T08:48:13;37.67;;;36.07;;
8397;SDS011;4236;54.504;9.588;2023-10-09T08:50:43;36.27;;;34.57;;
8397;SDS011;4236;54.504;9.588;2023-10-09T08:53:12;35.90;;;34.40;;
8397;SDS011;4236;54.504;9.588;2023-10-09T08:55:40;36.00;;;34.40;;
8397;SDS011;4236;54.504;9.588;2023-10-09T08:58:10;36.50;;;34.93;;
8397;SDS011;4236;54.504;9.588;2023-10-09T09:00:42;37.43;;;35.80;;
8397;SDS011;4236;54.504;9.588;2023-10-09T09:03:12;35.70;;;34.10;;
8397;SDS011;4236;54.504;9.588;2023-10-09T09:05:43;36.17;;;34.37;;
8397;SDS011;4236;54.504;9.588;2023-10-09T09:08:22;37.70;;;36.20;;
8397;SDS011;4236;54.504;9.588;2023-10-09T09:10:56;36.30;;;35.00;;
8397;SDS011;4236;54.504;9.588;2023-10-09T09:13:33;36.37;;;34.97;;
8397;SDS011;4236;54.504;9.588;2023-10-09T09:16:01;38.13;;;36.43;;
8397;SDS011;4236;54.504;9.588;2023-10-09T09:18:29;38.63;;;37.03;;
8397;SDS011;4236;54.504;9.588;2023-10-09T09:21:09;39.10;;;37.40;;
8397;SDS011;4236;54.504;9.588;2023-10-09T09:23:55;39.90;;;38.20;;
8397;SDS011;4236;54.504;9.588;2023-10-09T09:26:34;38.50;;;36.80;;
8397;SDS011;4236;54.504;9.588;2023-10-09T09:29:13;37.80;;;36.30;;
8397;SDS011;4236;54.504;9.588;2023-10-09T09:31:53;38.20;;;36.60;;
8397;SDS011;4236;54.504;9.588;2023-10-09T09:34:24;37.40;;;35.93;;
8397;SDS011;4236;54.504;9.588;2023-10-09T09:36:56;38.97;;;37.27;;
8397;SDS011;4236;54.504;9.588;2023-10-09T09:39:25;39.70;;;38.00;;
8397;SDS011;4236;54.504;9.588;2023-10-09T09:42:14;39.60;;;37.70;;
8397;SDS011;4236;54.504;9.588;2023-10-09T09:44:46;39.23;;;37.53;;
8397;SDS011;4236;54.504;9.588;2023-10-09T09:47:14;38.93;;;37.33;;
8397;SDS011;4236;54.504;9.588;2023-10-09T09:49:53;37.90;;;36.30;;
8397;SDS011;4236;54.504;9.588;2023-10-09T09:52:28;38.07;;;36.20;;
8397;SDS011;4236;54.504;9.588;2023-10-09T09:54:56;37.90;;;36.37;;
8397;SDS011;4236;54.504;9.588;2023-10-09T09:57:24;38.93;;;37.30;;
8397;SDS011;4236;54.504;9.588;2023-10-09T09:59:54;38.43;;;36.73;;
8397;SDS011;4236;54.504;9.588;2023-10-09T10:02:27;38.17;;;36.57;;
8397;SDS011;4236;54.504;9.588;2023-10-09T10:05:01;39.83;;;38.20;;
8397;SDS011;4236;54.504;9.588;2023-10-09T10:07:34;39.97;;;38.27;;
8397;SDS011;4236;54.504;9.588;2023-10-09T10:13:14;38.07;;;36.57;;
8397;SDS011;4236;54.504;9.588;2023-10-09T10:16:04;38.67;;;37.17;;
8397;SDS011;4236;54.504;9.588;2023-10-09T10:18:53;38.30;;;36.80;;
8397;SDS011;4236;54.504;9.588;2023-10-09T10:21:26;39.60;;;38.10;;
8397;SDS011;4236;54.504;9.588;2023-10-09T10:24:05;40.50;;;38.80;;
8397;SDS011;4236;54.504;9.588;2023-10-09T10:27:21;40.00;;;38.40;;
8397;SDS011;4236;54.504;9.588;2023-10-09T10:33:01;41.37;;;39.83;;
8397;SDS011;4236;54.504;9.588;2023-10-09T10:35:42;41.03;;;39.53;;
8397;SDS011;4236;54.504;9.588;2023-10-09T10:38:23;40.73;;;39.10;;
8397;SDS011;4236;54.504;9.588;2023-10-09T10:41:10;41.50;;;39.90;;
8397;SDS011;4236;54.504;9.588;2023-10-09T10:43:43;40.90;;;39.17;;
8397;SDS011;4236;54.504;9.588;2023-10-09T10:46:26;41.30;;;39.27;;
8397;SDS011;4236;54.504;9.588;2023-10-09T10:49:09;41.10;;;39.50;;
8397;SDS011;4236;54.504;9.588;2023-10-09T10:51:47;41.10;;;39.40;;
8397;SDS011;4236;54.504;9.588;2023-10-09T10:54:20;40.70;;;39.10;;
8397;SDS011;4236;54.504;9.588;2023-10-09T10:57:19;40.17;;;38.60;;
8397;SDS011;4236;54.504;9.588;2023-10-09T10:59:56;40.47;;;38.87;;
8397;SDS011;4236;54.504;9.588;2023-10-09T11:02:39;41.57;;;39.97;;
8397;SDS011;4236;54.504;9.588;2023-10-09T11:05:11;39.83;;;38.23;;
8397;SDS011;4236;54.504;9.588;2023-10-09T11:07:50;40.90;;;39.30;;
8397;SDS011;4236;54.504;9.588;2023-10-09T11:10:23;39.70;;;38.10;;
8397;SDS011;4236;54.504;9.588;2023-10-09T11:12:57;39.93;;;38.40;;
8397;SDS011;4236;54.504;9.588;2023-10-09T11:15:43;41.43;;;39.77;;
8397;SDS011;4236;54.504;9.588;2023-10-09T11:18:13;39.57;;;37.97;;
8397;SDS011;4236;54.504;9.588;2023-10-09T11:20:49;39.87;;;38.17;;
8397;SDS011;4236;54.504;9.588;2023-10-09T11:23:43;40.03;;;38.53;;
8397;SDS011;4236;54.504;9.588;2023-10-09T11:26:25;39.60;;;38.10;;
8397;SDS011;4236;54.504;9.588;2023-10-09T11:29:07;40.23;;;38.73;;
8397;SDS011;4236;54.504;9.588;2023-10-09T11:31:59;40.17;;;38.50;;
8397;SDS011;4236;54.504;9.588;2023-10-09T11:34:28;38.37;;;36.97;;
8397;SDS011;4236;54.504;9.588;2023-10-09T11:37:00;40.00;;;38.50;;
8397;SDS011;4236;54.504;9.588;2023-10-09T11:39:29;40.27;;;38.37;;
8397;SDS011;4236;54.504;9.588;2023-10-09T11:42:18;40.43;;;38.90;;
8397;SDS011;4236;54.504;9.588;2023-10-09T11:45:02;40.90;;;39.33;;
8397;SDS011;4236;54.504;9.588;2023-10-09T11:47:46;40.43;;;38.73;;
8397;SDS011;4236;54.504;9.588;2023-10-09T11:53:10;38.90;;;37.40;;
8397;SDS011;4236;54.504;9.588;2023-10-09T11:55:59;38.90;;;37.40;;
8397;SDS011;4236;54.504;9.588;2023-10-09T11:58:28;40.57;;;38.97;;
8397;SDS011;4236;54.504;9.588;2023-10-09T12:00:56;40.70;;;39.10;;
8397;SDS011;4236;54.504;9.588;2023-10-09T12:03:32;39.90;;;38.30;;
8397;SDS011;4236;54.504;9.588;2023-10-09T12:06:00;39.90;;;38.40;;
8397;SDS011;4236;54.504;9.588;2023-10-09T12:08:34;39.57;;;38.07;;
8397;SDS011;4236;54.504;9.588;2023-10-09T12:11:04;38.73;;;37.23;;
8397;SDS011;4236;54.504;9.588;2023-10-09T12:13:35;40.50;;;38.70;;
8397;SDS011;4236;54.504;9.588;2023-10-09T12:16:04;37.97;;;36.57;;
8397;SDS011;4236;54.504;9.588;2023-10-09T12:18:35;40.10;;;38.60;;
8397;SDS011;4236;54.504;9.588;2023-10-09T12:21:05;40.47;;;38.97;;
8397;SDS011;4236;54.504;9.588;2023-10-09T12:23:34;39.90;;;38.37;;
8397;SDS011;4236;54.504;9.588;2023-10-09T12:26:02;41.43;;;39.83;;
8397;SDS011;4236;54.504;9.588;2023-10-09T12:28:31;42.40;;;40.80;;
8397;SDS011;4236;54.504;9.588;2023-10-09T12:31:01;41.50;;;40.00;;
8397;SDS011;4236;54.504;9.588;2023-10-09T12:33:28;43.30;;;41.70;;
8397;SDS011;4236;54.504;9.588;2023-10-09T12:35:57;42.93;;;41.23;;
8397;SDS011;4236;54.504;9.588;2023-10-09T12:38:26;41.80;;;40.20;;
8397;SDS011;4236;54.504;9.588;2023-10-09T12:41:05;43.33;;;41.63;;
8397;SDS011;4236;54.504;9.588;2023-10-09T12:43:45;41.97;;;40.37;;
8397;SDS011;4236;54.504;9.588;2023-10-09T12:46:13;41.57;;;39.97;;
8397;SDS011;4236;54.504;9.588;2023-10-09T12:48:44;40.80;;;39.30;;
8397;SDS011;4236;54.504;9.588;2023-10-09T12:51:13;41.33;;;39.73;;
8397;SDS011;4236;54.504;9.588;2023-10-09T12:53:42;41.20;;;39.67;;
8397;SDS011;4236;54.504;9.588;2023-10-09T12:56:13;42.20;;;40.60;;
8397;SDS011;4236;54.504;9.588;2023-10-09T12:58:42;43.73;;;42.03;;
8397;SDS011;4236;54.504;9.588;2023-10-09T13:01:19;43.63;;;41.90;;
8397;SDS011;4236;54.504;9.588;2023-10-09T13:03:47;41.97;;;40.30;;
8397;SDS011;4236;54.504;9.588;2023-10-09T13:06:16;41.40;;;39.87;;
8397;SDS011;4236;54.504;9.588;2023-10-09T13:08:50;42.23;;;40.33;;
8397;SDS011;4236;54.504;9.588;2023-10-09T13:11:20;41.37;;;39.77;;
8397;SDS011;4236;54.504;9.588;2023-10-09T13:13:48;42.87;;;41.27;;
8397;SDS011;4236;54.504;9.588;2023-10-09T13:16:18;42.47;;;40.80;;
8397;SDS011;4236;54.504;9.588;2023-10-09T13:18:49;41.13;;;39.57;;
8397;SDS011;4236;54.504;9.588;2023-10-09T13:21:18;42.93;;;41.33;;
8397;SDS011;4236;54.504;9.588;2023-10-09T13:23:46;42.87;;;40.97;;
8397;SDS011;4236;54.504;9.588;2023-10-09T13:26:16;42.40;;;40.80;;
8397;SDS011;4236;54.504;9.588;2023-10-09T13:29:01;42.10;;;40.50;;
8397;SDS011;4236;54.504;9.588;2023-10-09T13:31:35;42.87;;;41.17;;
8397;SDS011;4236;54.504;9.588;2023-10-09T13:34:04;44.80;;;42.97;;
8397;SDS011;4236;54.504;9.588;2023-10-09T13:36:36;43.27;;;41.67;;
8397;SDS011;4236;54.504;9.588;2023-10-09T13:39:05;43.70;;;41.80;;
8397;SDS011;4236;54.504;9.588;2023-10-09T13:41:49;44.00;;;42.40;;
8397;SDS011;4236;54.504;9.588;2023-10-09T13:44:25;44.83;;;43.20;;
8397;SDS011;4236;54.504;9.588;2023-10-09T13:46:54;43.97;;;42.27;;
8397;SDS011;4236;54.504;9.588;2023-10-09T13:49:22;46.43;;;44.73;;
8397;SDS011;4236;54.504;9.588;2023-10-09T13:51:56;44.47;;;42.67;;
8397;SDS011;4236;54.504;9.588;2023-10-09T13:54:25;42.87;;;41.17;;
8397;SDS011;4236;54.504;9.588;2023-10-09T13:57:06;46.13;;;44.43;;
8397;SDS011;4236;54.504;9.588;2023-10-09T13:59:38;43.50;;;41.80;;
8397;SDS011;4236;54.504;9.588;2023-10-09T14:02:10;43.73;;;42.03;;
8397;SDS011;4236;54.504;9.588;2023-10-09T14:04:44;44.67;;;42.97;;
8397;SDS011;4236;54.504;9.588;2023-10-09T14:07:13;45.60;;;43.90;;
8397;SDS011;4236;54.504;9.588;2023-10-09T14:09:43;45.00;;;43.23;;
8397;SDS011;4236;54.504;9.588;2023-10-09T14:12:22;43.37;;;41.77;;
8397;SDS011;4236;54.504;9.588;2023-10-09T14:14:53;43.37;;;41.70;;
8397;SDS011;4236;54.504;9.588;2023-10-09T14:17:21;45.60;;;43.80;;
8397;SDS011;4236;54.504;9.588;2023-10-09T14:19:52;45.10;;;43.40;;
8397;SDS011;4236;54.504;9.588;2023-10-09T14:22:22;46.47;;;44.70;;
8397;SDS011;4236;54.504;9.588;2023-10-09T14:24:51;44.30;;;42.60;;
8397;SDS011;4236;54.504;9.588;2023-10-09T14:27:22;45.90;;;44.20;;
8397;SDS011;4236;54.504;9.588;2023-10-09T14:29:54;45.30;;;43.50;;
8397;SDS011;4236;54.504;9.588;2023-10-09T14:32:25;44.83;;;43.17;;
8397;SDS011;4236;54.504;9.588;2023-10-09T14:34:55;44.17;;;42.57;;
8397;SDS011;4236;54.504;9.588;2023-10-09T14:37:27;44.93;;;43.13;;
8397;SDS011;4236;54.504;9.588;2023-10-09T14:39:55;44.70;;;43.00;;
8397;SDS011;4236;54.504;9.588;2023-10-09T14:42:25;45.07;;;43.37;;
8397;SDS011;4236;54.504;9.588;2023-10-09T14:44:55;45.77;;;44.07;;
8397;SDS011;4236;54.504;9.588;2023-10-09T14:47:23;46.03;;;44.23;;
8397;SDS011;4236;54.504;9.588;2023-10-09T14:49:52;47.13;;;45.33;;
8397;SDS011;4236;54.504;9.588;2023-10-09T14:52:22;52.30;;;50.00;;
8397;SDS011;4236;54.504;9.588;2023-10-09T14:54:50;53.03;;;50.73;;
8397;SDS011;4236;54.504;9.588;2023-10-09T14:57:18;54.83;;;52.23;;
8397;SDS011;4236;54.504;9.588;2023-10-09T14:59:45;56.77;;;53.87;;
8397;SDS011;4236;54.504;9.588;2023-10-09T15:02:15;75.07;;;70.40;;
8397;SDS011;4236;54.504;9.588;2023-10-09T15:04:43;107.33;;;97.73;;
8397;SDS011;4236;54.504;9.588;2023-10-09T15:07:11;58.53;;;55.47;;
8397;SDS011;4236;54.504;9.588;2023-10-09T15:10:01;50.90;;;48.50;;
8397;SDS011;4236;54.504;9.588;2023-10-09T15:12:34;78.73;;;72.37;;
8397;SDS011;4236;54.504;9.588;2023-10-09T15:15:06;83.97;;;77.57;;
8397;SDS011;4236;54.504;9.588;2023-10-09T15:17:41;60.37;;;56.30;;
8397;SDS011;4236;54.504;9.588;2023-10-09T15:20:11;48.33;;;46.13;;
8397;SDS011;4236;54.504;9.588;2023-10-09T15:22:40;52.77;;;50.43;;
8397;SDS011;4236;54.504;9.588;2023-10-09T15:25:09;55.13;;;52.20;;
8397;SDS011;4236;54.504;9.588;2023-10-09T15:27:41;50.27;;;47.97;;
8397;SDS011;4236;54.504;9.588;2023-10-09T15:30:09;47.83;;;45.83;;
8397;SDS011;4236;54.504;9.588;2023-10-09T15:32:41;50.60;;;48.50;;
8397;SDS011;4236;54.504;9.588;2023-10-09T15:35:10;49.67;;;47.50;;
8397;SDS011;4236;54.504;9.588;2023-10-09T15:37:40;55.83;;;53.20;;
8397;SDS011;4236;54.504;9.588;2023-10-09T15:40:08;49.80;;;47.80;;
8397;SDS011;4236;54.504;9.588;2023-10-09T15:42:40;50.27;;;48.30;;
8397;SDS011;4236;54.504;9.588;2023-10-09T15:45:08;47.80;;;45.80;;